sensor_id;sensor_type;location;lat;lon;timestamp;P1;durP1;ratioP1;P2;durP2;ratioP2
12798;SDS011;19250;42.646;26.980;2022-12-15T00:01:23;11.20;;;7.85;;
12798;SDS011;19250;42.646;26.980;2022-12-15T00:04:07;14.15;;;8.68;;
12798;SDS011;19250;42.646;26.980;2022-12-15T00:06:51;18.20;;;9.45;;
12798;SDS011;19250;42.646;26.980;2022-12-15T00:09:36;17.50;;;9.60;;
12798;SDS011;19250;42.646;26.980;2022-12-15T00:12:22;23.25;;;8.98;;
12798;SDS011;19250;42.646;26.980;2022-12-15T00:15:06;15.90;;;8.30;;
12798;SDS011;19250;42.646;26.980;2022-12-15T00:17:52;9.98;;;5.57;;
12798;SDS011;19250;42.646;26.980;2022-12-15T00:20:36;0.10;;;0.10;;
12798;SDS011;19250;42.646;26.980;2022-12-15T00:23:20;0.70;;;0.70;;
12798;SDS011;19250;42.646;26.980;2022-12-15T00:26:05;0.10;;;0.10;;
12798;SDS011;19250;42.646;26.980;2022-12-15T00:28:51;0.40;;;0.40;;
12798;SDS011;19250;42.646;26.980;2022-12-15T00:31:36;0.10;;;0.10;;
12798;SDS011;19250;42.646;26.980;2022-12-15T00:34:20;0.10;;;0.10;;
12798;SDS011;19250;42.646;26.980;2022-12-15T00:37:06;0.10;;;0.10;;
12798;SDS011;19250;42.646;26.980;2022-12-15T00:39:50;0.20;;;0.20;;
12798;SDS011;19250;42.646;26.980;2022-12-15T00:42:23;0.90;;;0.90;;
12798;SDS011;19250;42.646;26.980;2022-12-15T00:44:54;4.50;;;3.80;;
12798;SDS011;19250;42.646;26.980;2022-12-15T00:47:22;0.10;;;0.10;;
12798;SDS011;19250;42.646;26.980;2022-12-15T00:49:50;0.10;;;0.10;;
12798;SDS011;19250;42.646;26.980;2022-12-15T00:52:34;0.10;;;0.10;;
12798;SDS011;19250;42.646;26.980;2022-12-15T00:55:18;0.20;;;0.20;;
12798;SDS011;19250;42.646;26.980;2022-12-15T00:58:03;0.20;;;0.20;;
12798;SDS011;19250;42.646;26.980;2022-12-15T01:00:49;0.10;;;0.10;;
12798;SDS011;19250;42.646;26.980;2022-12-15T01:03:33;0.30;;;0.30;;
12798;SDS011;19250;42.646;26.980;2022-12-15T01:06:18;0.90;;;0.90;;
12798;SDS011;19250;42.646;26.980;2022-12-15T01:09:05;0.10;;;0.10;;
12798;SDS011;19250;42.646;26.980;2022-12-15T01:11:51;0.10;;;0.10;;
12798;SDS011;19250;42.646;26.980;2022-12-15T01:14:36;0.10;;;0.10;;
12798;SDS011;19250;42.646;26.980;2022-12-15T01:17:22;0.40;;;0.40;;
12798;SDS011;19250;42.646;26.980;2022-12-15T01:20:06;0.10;;;0.10;;
12798;SDS011;19250;42.646;26.980;2022-12-15T01:22:43;0.50;;;0.50;;
12798;SDS011;19250;42.646;26.980;2022-12-15T01:25:12;0.50;;;0.30;;
12798;SDS011;19250;42.646;26.980;2022-12-15T01:27:40;0.70;;;0.70;;
12798;SDS011;19250;42.646;26.980;2022-12-15T01:30:08;3.70;;;1.50;;
12798;SDS011;19250;42.646;26.980;2022-12-15T01:32:38;0.20;;;0.20;;
12798;SDS011;19250;42.646;26.980;2022-12-15T01:35:06;0.10;;;0.10;;
12798;SDS011;19250;42.646;26.980;2022-12-15T01:37:34;0.10;;;0.10;;
12798;SDS011;19250;42.646;26.980;2022-12-15T01:40:01;0.80;;;0.80;;
12798;SDS011;19250;42.646;26.980;2022-12-15T01:42:46;0.10;;;0.10;;
12798;SDS011;19250;42.646;26.980;2022-12-15T01:45:35;0.13;;;0.13;;
12798;SDS011;19250;42.646;26.980;2022-12-15T01:48:14;0.20;;;0.20;;
12798;SDS011;19250;42.646;26.980;2022-12-15T01:50:47;0.17;;;0.17;;
12798;SDS011;19250;42.646;26.980;2022-12-15T01:53:19;0.30;;;0.30;;
12798;SDS011;19250;42.646;26.980;2022-12-15T01:55:47;0.10;;;0.10;;
12798;SDS011;19250;42.646;26.980;2022-12-15T01:58:14;0.30;;;0.30;;
12798;SDS011;19250;42.646;26.980;2022-12-15T02:00:44;0.20;;;0.20;;
12798;SDS011;19250;42.646;26.980;2022-12-15T02:03:11;0.10;;;0.10;;
12798;SDS011;19250;42.646;26.980;2022-12-15T02:05:40;0.10;;;0.10;;
12798;SDS011;19250;42.646;26.980;2022-12-15T02:08:07;0.10;;;0.10;;
12798;SDS011;19250;42.646;26.980;2022-12-15T02:10:39;0.10;;;0.10;;
12798;SDS011;19250;42.646;26.980;2022-12-15T02:13:17;0.10;;;0.10;;
12798;SDS011;19250;42.646;26.980;2022-12-15T02:15:54;0.40;;;0.40;;
12798;SDS011;19250;42.646;26.980;2022-12-15T02:18:27;1.00;;;1.00;;
12798;SDS011;19250;42.646;26.980;2022-12-15T02:21:01;4.20;;;4.00;;
12798;SDS011;19250;42.646;26.980;2022-12-15T02:26:52;0.10;;;0.10;;
12798;SDS011;19250;42.646;26.980;2022-12-15T02:32:48;0.45;;;0.45;;
12798;SDS011;19250;42.646;26.980;2022-12-15T02:35:26;0.45;;;0.45;;
12798;SDS011;19250;42.646;26.980;2022-12-15T02:37:58;1.20;;;0.90;;
12798;SDS011;19250;42.646;26.980;2022-12-15T02:40:26;0.10;;;0.10;;
12798;SDS011;19250;42.646;26.980;2022-12-15T02:42:54;0.10;;;0.10;;
12798;SDS011;19250;42.646;26.980;2022-12-15T02:45:29;1.80;;;1.70;;
12798;SDS011;19250;42.646;26.980;2022-12-15T02:48:06;0.80;;;0.80;;
12798;SDS011;19250;42.646;26.980;2022-12-15T02:50:41;1.70;;;1.70;;
12798;SDS011;19250;42.646;26.980;2022-12-15T02:53:25;1.00;;;0.80;;
12798;SDS011;19250;42.646;26.980;2022-12-15T02:56:11;0.40;;;0.40;;
12798;SDS011;19250;42.646;26.980;2022-12-15T02:58:47;0.10;;;0.10;;
12798;SDS011;19250;42.646;26.980;2022-12-15T03:01:25;0.28;;;0.28;;
12798;SDS011;19250;42.646;26.980;2022-12-15T03:04:00;0.00;;;0.00;;
12798;SDS011;19250;42.646;26.980;2022-12-15T03:06:30;0.10;;;0.10;;
12798;SDS011;19250;42.646;26.980;2022-12-15T03:08:57;0.10;;;0.10;;
12798;SDS011;19250;42.646;26.980;2022-12-15T03:11:24;0.47;;;0.47;;
12798;SDS011;19250;42.646;26.980;2022-12-15T03:13:52;1.27;;;1.27;;
12798;SDS011;19250;42.646;26.980;2022-12-15T03:16:19;0.20;;;0.20;;
12798;SDS011;19250;42.646;26.980;2022-12-15T03:18:47;0.33;;;0.33;;
12798;SDS011;19250;42.646;26.980;2022-12-15T03:21:16;0.30;;;0.30;;
12798;SDS011;19250;42.646;26.980;2022-12-15T03:23:43;0.70;;;0.70;;
12798;SDS011;19250;42.646;26.980;2022-12-15T03:26:11;0.90;;;0.90;;
12798;SDS011;19250;42.646;26.980;2022-12-15T03:28:38;1.15;;;1.10;;
12798;SDS011;19250;42.646;26.980;2022-12-15T03:31:06;0.90;;;0.90;;
12798;SDS011;19250;42.646;26.980;2022-12-15T03:33:34;1.02;;;1.02;;
12798;SDS011;19250;42.646;26.980;2022-12-15T03:36:01;1.00;;;1.00;;
12798;SDS011;19250;42.646;26.980;2022-12-15T03:38:30;0.65;;;0.65;;
12798;SDS011;19250;42.646;26.980;2022-12-15T03:40:57;0.15;;;0.15;;
12798;SDS011;19250;42.646;26.980;2022-12-15T03:43:24;0.60;;;0.60;;
12798;SDS011;19250;42.646;26.980;2022-12-15T03:45:51;0.13;;;0.13;;
12798;SDS011;19250;42.646;26.980;2022-12-15T03:48:19;1.10;;;1.10;;
12798;SDS011;19250;42.646;26.980;2022-12-15T03:50:46;0.10;;;0.10;;
12798;SDS011;19250;42.646;26.980;2022-12-15T03:53:14;0.50;;;0.50;;
12798;SDS011;19250;42.646;26.980;2022-12-15T03:55:43;0.20;;;0.20;;
12798;SDS011;19250;42.646;26.980;2022-12-15T03:58:10;1.40;;;0.90;;
12798;SDS011;19250;42.646;26.980;2022-12-15T04:00:37;0.10;;;0.10;;
12798;SDS011;19250;42.646;26.980;2022-12-15T04:03:04;0.00;;;0.00;;
12798;SDS011;19250;42.646;26.980;2022-12-15T04:05:32;0.17;;;0.17;;
12798;SDS011;19250;42.646;26.980;2022-12-15T04:08:00;0.20;;;0.20;;
12798;SDS011;19250;42.646;26.980;2022-12-15T04:10:29;0.80;;;0.80;;
12798;SDS011;19250;42.646;26.980;2022-12-15T04:12:59;0.10;;;0.10;;
12798;SDS011;19250;42.646;26.980;2022-12-15T04:15:27;0.20;;;0.20;;
12798;SDS011;19250;42.646;26.980;2022-12-15T04:17:55;1.10;;;1.07;;
12798;SDS011;19250;42.646;26.980;2022-12-15T04:20:22;0.10;;;0.10;;
12798;SDS011;19250;42.646;26.980;2022-12-15T04:22:50;0.10;;;0.10;;
12798;SDS011;19250;42.646;26.980;2022-12-15T04:25:18;0.10;;;0.10;;
12798;SDS011;19250;42.646;26.980;2022-12-15T04:28:05;1.30;;;1.20;;
12798;SDS011;19250;42.646;26.980;2022-12-15T04:30:51;0.55;;;0.55;;
12798;SDS011;19250;42.646;26.980;2022-12-15T04:33:38;0.20;;;0.20;;
12798;SDS011;19250;42.646;26.980;2022-12-15T04:36:25;0.40;;;0.40;;
12798;SDS011;19250;42.646;26.980;2022-12-15T04:39:10;0.40;;;0.40;;
12798;SDS011;19250;42.646;26.980;2022-12-15T04:41:56;0.10;;;0.10;;
12798;SDS011;19250;42.646;26.980;2022-12-15T04:44:43;0.50;;;0.50;;
12798;SDS011;19250;42.646;26.980;2022-12-15T04:47:29;0.10;;;0.10;;
12798;SDS011;19250;42.646;26.980;2022-12-15T04:50:13;0.10;;;0.10;;
12798;SDS011;19250;42.646;26.980;2022-12-15T04:53:05;0.20;;;0.20;;
12798;SDS011;19250;42.646;26.980;2022-12-15T04:55:51;0.50;;;0.50;;
12798;SDS011;19250;42.646;26.980;2022-12-15T04:58:35;0.52;;;0.52;;
12798;SDS011;19250;42.646;26.980;2022-12-15T05:01:21;0.40;;;0.40;;
12798;SDS011;19250;42.646;26.980;2022-12-15T05:04:06;0.20;;;0.20;;
12798;SDS011;19250;42.646;26.980;2022-12-15T05:06:50;0.20;;;0.20;;
12798;SDS011;19250;42.646;26.980;2022-12-15T05:09:35;0.50;;;0.50;;
12798;SDS011;19250;42.646;26.980;2022-12-15T05:12:19;3.40;;;1.23;;
12798;SDS011;19250;42.646;26.980;2022-12-15T05:15:04;0.40;;;0.40;;
12798;SDS011;19250;42.646;26.980;2022-12-15T05:17:51;0.40;;;0.40;;
12798;SDS011;19250;42.646;26.980;2022-12-15T05:20:35;4.60;;;2.40;;
12798;SDS011;19250;42.646;26.980;2022-12-15T05:23:23;1.67;;;0.90;;
12798;SDS011;19250;42.646;26.980;2022-12-15T05:26:07;1.08;;;1.05;;
12798;SDS011;19250;42.646;26.980;2022-12-15T05:28:51;0.50;;;0.50;;
12798;SDS011;19250;42.646;26.980;2022-12-15T05:31:36;0.80;;;0.80;;
12798;SDS011;19250;42.646;26.980;2022-12-15T05:34:17;3.40;;;3.20;;
12798;SDS011;19250;42.646;26.980;2022-12-15T05:36:45;0.20;;;0.20;;
12798;SDS011;19250;42.646;26.980;2022-12-15T05:39:13;0.70;;;0.70;;
12798;SDS011;19250;42.646;26.980;2022-12-15T05:41:40;0.10;;;0.10;;
12798;SDS011;19250;42.646;26.980;2022-12-15T05:44:07;2.30;;;2.20;;
12798;SDS011;19250;42.646;26.980;2022-12-15T05:46:35;3.22;;;3.03;;
12798;SDS011;19250;42.646;26.980;2022-12-15T05:49:02;0.20;;;0.20;;
12798;SDS011;19250;42.646;26.980;2022-12-15T05:51:33;0.10;;;0.10;;
12798;SDS011;19250;42.646;26.980;2022-12-15T05:54:04;0.40;;;0.40;;
12798;SDS011;19250;42.646;26.980;2022-12-15T05:56:32;2.00;;;1.63;;
12798;SDS011;19250;42.646;26.980;2022-12-15T05:58:59;0.50;;;0.50;;
12798;SDS011;19250;42.646;26.980;2022-12-15T06:01:26;6.50;;;2.80;;
12798;SDS011;19250;42.646;26.980;2022-12-15T06:03:55;0.77;;;0.77;;
12798;SDS011;19250;42.646;26.980;2022-12-15T06:06:22;1.58;;;1.58;;
12798;SDS011;19250;42.646;26.980;2022-12-15T06:08:51;1.10;;;0.77;;
12798;SDS011;19250;42.646;26.980;2022-12-15T06:11:19;1.25;;;1.15;;
12798;SDS011;19250;42.646;26.980;2022-12-15T06:13:47;1.60;;;1.52;;
12798;SDS011;19250;42.646;26.980;2022-12-15T06:16:15;0.50;;;0.50;;
12798;SDS011;19250;42.646;26.980;2022-12-15T06:18:44;1.30;;;1.20;;
12798;SDS011;19250;42.646;26.980;2022-12-15T06:21:13;1.52;;;1.45;;
12798;SDS011;19250;42.646;26.980;2022-12-15T06:23:42;0.20;;;0.20;;
12798;SDS011;19250;42.646;26.980;2022-12-15T06:26:12;3.70;;;3.50;;
12798;SDS011;19250;42.646;26.980;2022-12-15T06:28:40;1.10;;;1.10;;
12798;SDS011;19250;42.646;26.980;2022-12-15T06:31:08;1.50;;;1.30;;
12798;SDS011;19250;42.646;26.980;2022-12-15T06:33:37;0.23;;;0.23;;
12798;SDS011;19250;42.646;26.980;2022-12-15T06:36:05;1.75;;;1.75;;
12798;SDS011;19250;42.646;26.980;2022-12-15T06:38:34;2.00;;;1.90;;
12798;SDS011;19250;42.646;26.980;2022-12-15T06:41:03;1.25;;;1.20;;
12798;SDS011;19250;42.646;26.980;2022-12-15T06:43:32;4.28;;;1.55;;
12798;SDS011;19250;42.646;26.980;2022-12-15T06:46:00;1.05;;;1.05;;
12798;SDS011;19250;42.646;26.980;2022-12-15T06:48:28;3.38;;;3.13;;
12798;SDS011;19250;42.646;26.980;2022-12-15T06:50:55;2.20;;;2.10;;
12798;SDS011;19250;42.646;26.980;2022-12-15T06:53:29;3.13;;;2.78;;
12798;SDS011;19250;42.646;26.980;2022-12-15T06:55:58;7.45;;;6.85;;
12798;SDS011;19250;42.646;26.980;2022-12-15T06:58:27;2.97;;;2.80;;
12798;SDS011;19250;42.646;26.980;2022-12-15T07:00:55;0.80;;;0.80;;
12798;SDS011;19250;42.646;26.980;2022-12-15T07:03:23;0.60;;;0.60;;
12798;SDS011;19250;42.646;26.980;2022-12-15T07:05:59;0.50;;;0.50;;
12798;SDS011;19250;42.646;26.980;2022-12-15T07:08:27;1.30;;;1.30;;
12798;SDS011;19250;42.646;26.980;2022-12-15T07:10:55;1.60;;;1.40;;
12798;SDS011;19250;42.646;26.980;2022-12-15T07:13:22;2.50;;;2.40;;
12798;SDS011;19250;42.646;26.980;2022-12-15T07:15:50;5.97;;;2.50;;
12798;SDS011;19250;42.646;26.980;2022-12-15T07:18:19;8.10;;;2.30;;
12798;SDS011;19250;42.646;26.980;2022-12-15T07:20:46;5.57;;;5.18;;
12798;SDS011;19250;42.646;26.980;2022-12-15T07:23:13;2.70;;;2.55;;
12798;SDS011;19250;42.646;26.980;2022-12-15T07:25:40;3.17;;;2.97;;
12798;SDS011;19250;42.646;26.980;2022-12-15T07:28:08;0.43;;;0.43;;
12798;SDS011;19250;42.646;26.980;2022-12-15T07:30:36;2.03;;;1.88;;
12798;SDS011;19250;42.646;26.980;2022-12-15T07:33:03;5.70;;;2.63;;
12798;SDS011;19250;42.646;26.980;2022-12-15T07:35:32;12.60;;;11.82;;
12798;SDS011;19250;42.646;26.980;2022-12-15T07:37:59;0.30;;;0.30;;
12798;SDS011;19250;42.646;26.980;2022-12-15T07:40:31;0.60;;;0.60;;
12798;SDS011;19250;42.646;26.980;2022-12-15T07:42:58;9.00;;;3.30;;
12798;SDS011;19250;42.646;26.980;2022-12-15T07:45:26;1.08;;;1.08;;
12798;SDS011;19250;42.646;26.980;2022-12-15T07:47:53;0.30;;;0.30;;
12798;SDS011;19250;42.646;26.980;2022-12-15T07:50:20;6.27;;;5.50;;
12798;SDS011;19250;42.646;26.980;2022-12-15T07:52:50;0.47;;;0.47;;
12798;SDS011;19250;42.646;26.980;2022-12-15T07:55:17;0.25;;;0.25;;
12798;SDS011;19250;42.646;26.980;2022-12-15T07:57:45;1.83;;;0.75;;
12798;SDS011;19250;42.646;26.980;2022-12-15T08:00:13;7.18;;;6.68;;
12798;SDS011;19250;42.646;26.980;2022-12-15T08:02:42;1.67;;;1.60;;
12798;SDS011;19250;42.646;26.980;2022-12-15T08:05:09;0.50;;;0.50;;
12798;SDS011;19250;42.646;26.980;2022-12-15T08:07:36;4.15;;;3.95;;
12798;SDS011;19250;42.646;26.980;2022-12-15T08:10:05;0.10;;;0.10;;
12798;SDS011;19250;42.646;26.980;2022-12-15T08:12:33;2.53;;;2.35;;
12798;SDS011;19250;42.646;26.980;2022-12-15T08:15:00;0.63;;;0.63;;
12798;SDS011;19250;42.646;26.980;2022-12-15T08:17:28;1.02;;;1.02;;
12798;SDS011;19250;42.646;26.980;2022-12-15T08:19:55;0.50;;;0.50;;
12798;SDS011;19250;42.646;26.980;2022-12-15T08:22:22;0.10;;;0.10;;
12798;SDS011;19250;42.646;26.980;2022-12-15T08:24:49;1.25;;;1.25;;
12798;SDS011;19250;42.646;26.980;2022-12-15T08:27:18;1.40;;;1.30;;
12798;SDS011;19250;42.646;26.980;2022-12-15T08:29:48;1.20;;;1.20;;
12798;SDS011;19250;42.646;26.980;2022-12-15T08:32:15;1.00;;;1.00;;
12798;SDS011;19250;42.646;26.980;2022-12-15T08:34:42;0.65;;;0.65;;
12798;SDS011;19250;42.646;26.980;2022-12-15T08:37:12;1.30;;;1.30;;
12798;SDS011;19250;42.646;26.980;2022-12-15T08:39:39;1.65;;;1.55;;
12798;SDS011;19250;42.646;26.980;2022-12-15T08:42:07;0.50;;;0.50;;
12798;SDS011;19250;42.646;26.980;2022-12-15T08:44:36;0.88;;;0.88;;
12798;SDS011;19250;42.646;26.980;2022-12-15T08:47:03;0.30;;;0.30;;
12798;SDS011;19250;42.646;26.980;2022-12-15T08:49:30;1.08;;;1.02;;
12798;SDS011;19250;42.646;26.980;2022-12-15T08:51:57;9.70;;;8.50;;
12798;SDS011;19250;42.646;26.980;2022-12-15T08:54:24;0.10;;;0.10;;
12798;SDS011;19250;42.646;26.980;2022-12-15T08:56:51;0.50;;;0.50;;
12798;SDS011;19250;42.646;26.980;2022-12-15T08:59:19;0.40;;;0.40;;
12798;SDS011;19250;42.646;26.980;2022-12-15T09:01:48;0.35;;;0.35;;
12798;SDS011;19250;42.646;26.980;2022-12-15T09:04:15;0.50;;;0.50;;
12798;SDS011;19250;42.646;26.980;2022-12-15T09:06:42;0.80;;;0.80;;
12798;SDS011;19250;42.646;26.980;2022-12-15T09:09:11;0.20;;;0.20;;
12798;SDS011;19250;42.646;26.980;2022-12-15T09:11:39;1.00;;;1.00;;
12798;SDS011;19250;42.646;26.980;2022-12-15T09:14:06;0.20;;;0.20;;
12798;SDS011;19250;42.646;26.980;2022-12-15T09:16:33;0.30;;;0.30;;
12798;SDS011;19250;42.646;26.980;2022-12-15T09:19:02;0.57;;;0.57;;
12798;SDS011;19250;42.646;26.980;2022-12-15T09:21:29;0.17;;;0.17;;
12798;SDS011;19250;42.646;26.980;2022-12-15T09:23:57;0.30;;;0.30;;
12798;SDS011;19250;42.646;26.980;2022-12-15T09:26:26;1.25;;;1.25;;
12798;SDS011;19250;42.646;26.980;2022-12-15T09:28:56;0.45;;;0.45;;
12798;SDS011;19250;42.646;26.980;2022-12-15T09:31:24;0.25;;;0.25;;
12798;SDS011;19250;42.646;26.980;2022-12-15T09:33:53;0.80;;;0.50;;
12798;SDS011;19250;42.646;26.980;2022-12-15T09:36:22;1.10;;;1.00;;
12798;SDS011;19250;42.646;26.980;2022-12-15T09:38:50;0.20;;;0.20;;
12798;SDS011;19250;42.646;26.980;2022-12-15T09:41:19;1.30;;;0.88;;
12798;SDS011;19250;42.646;26.980;2022-12-15T09:43:52;1.00;;;0.80;;
12798;SDS011;19250;42.646;26.980;2022-12-15T09:46:25;1.30;;;1.30;;
12798;SDS011;19250;42.646;26.980;2022-12-15T09:48:57;0.20;;;0.20;;
12798;SDS011;19250;42.646;26.980;2022-12-15T09:51:31;0.90;;;0.90;;
12798;SDS011;19250;42.646;26.980;2022-12-15T09:54:05;0.50;;;0.50;;
12798;SDS011;19250;42.646;26.980;2022-12-15T09:56:38;46.25;;;38.60;;
12798;SDS011;19250;42.646;26.980;2022-12-15T09:59:15;38.47;;;32.67;;
12798;SDS011;19250;42.646;26.980;2022-12-15T10:01:51;42.40;;;36.28;;
12798;SDS011;19250;42.646;26.980;2022-12-15T10:04:28;42.05;;;34.35;;
12798;SDS011;19250;42.646;26.980;2022-12-15T10:07:07;40.80;;;34.60;;
12798;SDS011;19250;42.646;26.980;2022-12-15T10:09:40;37.72;;;31.83;;
12798;SDS011;19250;42.646;26.980;2022-12-15T10:12:08;41.97;;;35.30;;
12798;SDS011;19250;42.646;26.980;2022-12-15T10:14:41;53.95;;;44.95;;
12798;SDS011;19250;42.646;26.980;2022-12-15T10:17:16;34.30;;;28.58;;
12798;SDS011;19250;42.646;26.980;2022-12-15T10:19:50;41.85;;;36.85;;
12798;SDS011;19250;42.646;26.980;2022-12-15T10:22:23;39.75;;;33.03;;
12798;SDS011;19250;42.646;26.980;2022-12-15T10:24:52;38.50;;;33.28;;
12798;SDS011;19250;42.646;26.980;2022-12-15T10:27:24;39.47;;;34.10;;
12798;SDS011;19250;42.646;26.980;2022-12-15T10:30:02;43.42;;;35.95;;
12798;SDS011;19250;42.646;26.980;2022-12-15T10:32:33;39.92;;;34.85;;
12798;SDS011;19250;42.646;26.980;2022-12-15T10:35:12;40.28;;;36.08;;
12798;SDS011;19250;42.646;26.980;2022-12-15T10:37:43;38.22;;;31.10;;
12798;SDS011;19250;42.646;26.980;2022-12-15T10:40:13;39.47;;;31.75;;
12798;SDS011;19250;42.646;26.980;2022-12-15T10:42:45;43.47;;;35.67;;
12798;SDS011;19250;42.646;26.980;2022-12-15T10:45:29;45.53;;;37.25;;
12798;SDS011;19250;42.646;26.980;2022-12-15T10:48:01;45.20;;;36.30;;
12798;SDS011;19250;42.646;26.980;2022-12-15T10:50:31;44.97;;;35.87;;
12798;SDS011;19250;42.646;26.980;2022-12-15T10:53:00;42.28;;;33.75;;
12798;SDS011;19250;42.646;26.980;2022-12-15T10:55:35;41.67;;;34.63;;
12798;SDS011;19250;42.646;26.980;2022-12-15T10:58:15;45.10;;;33.95;;
12798;SDS011;19250;42.646;26.980;2022-12-15T11:00:43;45.35;;;37.33;;
12798;SDS011;19250;42.646;26.980;2022-12-15T11:03:21;46.17;;;39.42;;
12798;SDS011;19250;42.646;26.980;2022-12-15T11:05:50;84.35;;;73.78;;
12798;SDS011;19250;42.646;26.980;2022-12-15T11:08:20;82.30;;;74.07;;
12798;SDS011;19250;42.646;26.980;2022-12-15T11:10:49;51.28;;;44.88;;
12798;SDS011;19250;42.646;26.980;2022-12-15T11:13:35;43.90;;;37.53;;
12798;SDS011;19250;42.646;26.980;2022-12-15T11:16:14;42.08;;;36.17;;
12798;SDS011;19250;42.646;26.980;2022-12-15T11:18:44;37.33;;;30.88;;
12798;SDS011;19250;42.646;26.980;2022-12-15T11:21:18;36.57;;;30.50;;
12798;SDS011;19250;42.646;26.980;2022-12-15T11:23:56;43.33;;;37.53;;
12798;SDS011;19250;42.646;26.980;2022-12-15T11:26:34;35.95;;;31.25;;
12798;SDS011;19250;42.646;26.980;2022-12-15T11:29:13;40.28;;;33.70;;
12798;SDS011;19250;42.646;26.980;2022-12-15T11:31:48;39.90;;;35.35;;
12798;SDS011;19250;42.646;26.980;2022-12-15T11:34:18;40.22;;;33.15;;
12798;SDS011;19250;42.646;26.980;2022-12-15T11:37:00;32.30;;;28.58;;
12798;SDS011;19250;42.646;26.980;2022-12-15T11:39:44;36.00;;;31.45;;
12798;SDS011;19250;42.646;26.980;2022-12-15T11:42:27;34.80;;;29.38;;
12798;SDS011;19250;42.646;26.980;2022-12-15T11:45:06;36.08;;;30.15;;
12798;SDS011;19250;42.646;26.980;2022-12-15T11:47:42;41.15;;;34.15;;
12798;SDS011;19250;42.646;26.980;2022-12-15T11:50:25;60.05;;;43.65;;
12798;SDS011;19250;42.646;26.980;2022-12-15T11:53:01;40.13;;;34.15;;
12798;SDS011;19250;42.646;26.980;2022-12-15T11:55:42;58.42;;;44.72;;
12798;SDS011;19250;42.646;26.980;2022-12-15T11:58:20;34.37;;;28.83;;
12798;SDS011;19250;42.646;26.980;2022-12-15T12:01:03;30.70;;;26.77;;
12798;SDS011;19250;42.646;26.980;2022-12-15T12:03:41;31.50;;;28.10;;
12798;SDS011;19250;42.646;26.980;2022-12-15T12:06:22;25.20;;;22.58;;
12798;SDS011;19250;42.646;26.980;2022-12-15T12:08:59;29.70;;;26.65;;
12798;SDS011;19250;42.646;26.980;2022-12-15T12:11:42;23.45;;;21.15;;
12798;SDS011;19250;42.646;26.980;2022-12-15T12:14:16;20.73;;;18.63;;
12798;SDS011;19250;42.646;26.980;2022-12-15T12:16:54;34.55;;;30.98;;
12798;SDS011;19250;42.646;26.980;2022-12-15T12:19:29;35.65;;;31.75;;
12798;SDS011;19250;42.646;26.980;2022-12-15T12:22:01;44.33;;;39.63;;
12798;SDS011;19250;42.646;26.980;2022-12-15T12:24:37;42.15;;;37.78;;
12798;SDS011;19250;42.646;26.980;2022-12-15T12:27:10;31.83;;;28.63;;
12798;SDS011;19250;42.646;26.980;2022-12-15T12:29:44;32.45;;;28.92;;
12798;SDS011;19250;42.646;26.980;2022-12-15T12:32:14;37.17;;;33.33;;
12798;SDS011;19250;42.646;26.980;2022-12-15T12:34:53;21.42;;;19.42;;
12798;SDS011;19250;42.646;26.980;2022-12-15T12:37:24;35.25;;;31.40;;
12798;SDS011;19250;42.646;26.980;2022-12-15T12:39:59;25.75;;;22.45;;
12798;SDS011;19250;42.646;26.980;2022-12-15T12:42:33;24.17;;;21.57;;
12798;SDS011;19250;42.646;26.980;2022-12-15T12:45:09;23.52;;;21.08;;
12798;SDS011;19250;42.646;26.980;2022-12-15T12:47:39;30.55;;;27.50;;
12798;SDS011;19250;42.646;26.980;2022-12-15T12:50:13;38.15;;;34.05;;
12798;SDS011;19250;42.646;26.980;2022-12-15T12:52:47;40.45;;;36.25;;
12798;SDS011;19250;42.646;26.980;2022-12-15T12:55:24;30.60;;;27.67;;
12798;SDS011;19250;42.646;26.980;2022-12-15T12:57:56;32.43;;;28.87;;
12798;SDS011;19250;42.646;26.980;2022-12-15T13:00:24;33.22;;;29.83;;
12798;SDS011;19250;42.646;26.980;2022-12-15T13:02:54;32.87;;;29.57;;
12798;SDS011;19250;42.646;26.980;2022-12-15T13:05:37;31.42;;;28.30;;
12798;SDS011;19250;42.646;26.980;2022-12-15T13:14:25;44.13;;;39.60;;
12798;SDS011;19250;42.646;26.980;2022-12-15T13:16:56;51.83;;;44.85;;
12798;SDS011;19250;42.646;26.980;2022-12-15T13:22:36;61.80;;;47.30;;
12798;SDS011;19250;42.646;26.980;2022-12-15T13:31:29;41.33;;;35.33;;
12798;SDS011;19250;42.646;26.980;2022-12-15T13:34:09;42.50;;;36.35;;
12798;SDS011;19250;42.646;26.980;2022-12-15T13:36:46;47.40;;;38.85;;
12798;SDS011;19250;42.646;26.980;2022-12-15T13:42:31;49.97;;;42.50;;
12798;SDS011;19250;42.646;26.980;2022-12-15T13:48:11;47.28;;;38.40;;
12798;SDS011;19250;42.646;26.980;2022-12-15T13:50:45;48.63;;;40.60;;
12798;SDS011;19250;42.646;26.980;2022-12-15T13:53:18;51.63;;;41.83;;
12798;SDS011;19250;42.646;26.980;2022-12-15T13:55:55;52.47;;;44.35;;
12798;SDS011;19250;42.646;26.980;2022-12-15T13:58:26;48.63;;;40.85;;
12798;SDS011;19250;42.646;26.980;2022-12-15T14:00:58;48.40;;;41.35;;
12798;SDS011;19250;42.646;26.980;2022-12-15T14:03:28;51.90;;;43.78;;
12798;SDS011;19250;42.646;26.980;2022-12-15T14:05:56;51.25;;;43.90;;
12798;SDS011;19250;42.646;26.980;2022-12-15T14:08:25;52.70;;;43.83;;
12798;SDS011;19250;42.646;26.980;2022-12-15T14:10:55;51.45;;;43.55;;
12798;SDS011;19250;42.646;26.980;2022-12-15T14:13:25;53.15;;;40.83;;
12798;SDS011;19250;42.646;26.980;2022-12-15T14:15:55;56.53;;;45.70;;
12798;SDS011;19250;42.646;26.980;2022-12-15T14:18:26;59.67;;;47.08;;
12798;SDS011;19250;42.646;26.980;2022-12-15T14:20:56;56.65;;;45.25;;
12798;SDS011;19250;42.646;26.980;2022-12-15T14:23:25;54.90;;;43.13;;
12798;SDS011;19250;42.646;26.980;2022-12-15T14:25:55;59.25;;;47.08;;
12798;SDS011;19250;42.646;26.980;2022-12-15T14:28:23;59.42;;;47.00;;
12798;SDS011;19250;42.646;26.980;2022-12-15T14:30:55;58.50;;;48.95;;
12798;SDS011;19250;42.646;26.980;2022-12-15T14:33:24;63.92;;;50.35;;
12798;SDS011;19250;42.646;26.980;2022-12-15T14:35:53;60.85;;;47.17;;
12798;SDS011;19250;42.646;26.980;2022-12-15T14:38:24;60.35;;;49.90;;
12798;SDS011;19250;42.646;26.980;2022-12-15T14:40:54;65.27;;;53.77;;
12798;SDS011;19250;42.646;26.980;2022-12-15T14:43:23;70.30;;;61.78;;
12798;SDS011;19250;42.646;26.980;2022-12-15T14:45:54;240.85;;;202.35;;
12798;SDS011;19250;42.646;26.980;2022-12-15T14:48:31;71.60;;;63.60;;
12798;SDS011;19250;42.646;26.980;2022-12-15T14:51:02;85.28;;;73.60;;
12798;SDS011;19250;42.646;26.980;2022-12-15T14:53:32;104.75;;;82.57;;
12798;SDS011;19250;42.646;26.980;2022-12-15T14:56:11;114.82;;;89.53;;
12798;SDS011;19250;42.646;26.980;2022-12-15T14:58:45;159.27;;;143.20;;
12798;SDS011;19250;42.646;26.980;2022-12-15T15:01:20;103.90;;;91.30;;
12798;SDS011;19250;42.646;26.980;2022-12-15T15:03:56;571.35;;;326.90;;
12798;SDS011;19250;42.646;26.980;2022-12-15T15:06:30;90.85;;;68.93;;
12798;SDS011;19250;42.646;26.980;2022-12-15T15:09:19;93.25;;;72.95;;
12798;SDS011;19250;42.646;26.980;2022-12-15T15:11:50;161.35;;;135.27;;
12798;SDS011;19250;42.646;26.980;2022-12-15T15:14:21;118.53;;;104.85;;
12798;SDS011;19250;42.646;26.980;2022-12-15T15:16:58;132.32;;;111.13;;
12798;SDS011;19250;42.646;26.980;2022-12-15T15:19:28;127.30;;;103.73;;
12798;SDS011;19250;42.646;26.980;2022-12-15T15:21:59;133.45;;;106.55;;
12798;SDS011;19250;42.646;26.980;2022-12-15T15:24:32;111.85;;;96.32;;
12798;SDS011;19250;42.646;26.980;2022-12-15T15:27:21;119.47;;;98.13;;